Allen Army Airfield Delta Junction Ft Greely US
ICAO: PABI
IATA:
Category: Medium
Scheduled Services:

Elevation: 1291 ft
TransAlt. 18000 ft.

Airport Communications:
ASOS:135.65
ATIS:132.075
TWEB:114.9
ANCHORAGE CNTR:135.3
CTAF:122.9
FAIRBANKS RDO:122.2
FORT GREELY GND:118.225
FT GREELY RANGE CON:38.3
BASE OPS:122.9
TWR:125.325

PABI Zoom In..

Runways:

(A) RW 01 length 9000 ft width 150 ft
---- / hdg 7

(B) RW 07 length 4077 ft width 90 ft
---- / hdg 69

(C) RW 10 length 6115 ft width 150 ft
ILS 111.10 / hdg 102

(D) RW 19 length 9000 ft width 150 ft
---- / hdg 187

(E) RW 25 length 4077 ft width 90 ft
---- / hdg 249

(F) RW 28 length 6115 ft width 150 ft
---- / hdg 282

Location; PABI
Day. 20 / Time. 01.53 Zulu
* Altimeter: 30.17
* Temperature: 21° c. 69.8°f.
* Wind from: 330° Speed 08 kn.
Dewpoint: 09° c.
Visibility: 10 Statute Miles.
Clouds: Scattered 6500 ft.
Clouds: Broken 9000 ft.
Clouds: Overcast 16000 ft.
Conditions: Rain Showers.

PABI 200153Z 33008KT 10SM SCT065 BKN090 OVC160 21/09 A3017 RMK AO2 SLP216 SHRA DSNT N NE SW NW BINOVC T02110094


Wind From 330°
Speed 08 kn.

 
 
jpsmedia.com for Web Design worldairports.se 2018   terms of use